Accueil
METAR-TAF:

METAR-TAF

Aéroports :

Lleida-Alguaire

Lleida, Espagne

latitude: 41-43-40N, longitude: 000-32-09E, altitude: 350 m

Observation

Le bulletin a été fait il y a 23 minutes, à 21:00 UTC
Vent 24 kt de est/nord-est
Température 10°C
Humidité 82%
Pression 1021 hPa
Visibilité 10 km ou plus
Nuages fragmentés à une hauteur de 6000 ft

METAR: LEDA 212100Z AUTO 06024KT 9999 BKN060 10/07 Q1021

Heure: 22:23 (21:23 UTC)


TAF: absent

Observations et prévisions météorologiques de plus de 4000 aéroports (messages METAR et TAF).

Les stations disponibles sont représentées par des disques jaunes et rouges sur la carte.

Passer la souris dessus pour voir le nom de la station.

Cliquer dessus pour voir les observations et prévisions météorologiques.

Pour changer de carte: cliquez sur les boutons verts avec une croix noire pour zoomer, sur le bouton vert avec un tiret pour effectuer un zoom arrière, ou sur les flèches vertes pour les cartes adjacentes.


METAR-TAF: